Time;durP1;ratioP1;P1;durP2;ratioP2;P2;SDS_P1;SDS_P2;PMS_P1;PMS_P2;Temp;Humidity;BMP_temperature;BMP_pressure;BME280_temperature;BME280_humidity;BME280_pressure;Samples;Min_cycle;Max_cycle;Signal;HPM_P1;HPM_P2
2023/04/23 00:00:56;;;;;;;0.20;0.20;;;;;;;18.97;44.31;100455.25;5114998;28;20308;-45
2023/04/23 00:03:22;;;;;;;0.30;0.30;;;;;;;18.97;44.31;100456.09;5109656;28;20499;-46
2023/04/23 00:05:51;;;;;;;0.20;0.20;;;;;;;18.98;44.30;100451.38;5113268;28;20046;-42
2023/04/23 00:08:17;;;;;;;0.20;0.20;;;;;;;18.96;44.35;100448.94;5096067;27;20071;-44
2023/04/23 00:10:43;;;;;;;0.20;0.20;;;;;;;18.96;44.31;100437.88;5117179;28;20483;-46
2023/04/23 00:13:09;;;;;;;0.20;0.20;;;;;;;18.96;44.24;100437.88;5118564;28;20054;-43
2023/04/23 00:15:35;;;;;;;0.20;0.20;;;;;;;18.96;44.27;100443.41;5117747;28;20319;-45
2023/04/23 00:18:01;;;;;;;0.20;0.20;;;;;;;18.96;44.17;100445.34;5117548;28;20046;-42
2023/04/23 00:20:27;;;;;;;0.22;0.22;;;;;;;18.98;43.96;100448.63;5117966;28;20415;-43
2023/04/23 00:22:53;;;;;;;0.30;0.30;;;;;;;18.96;44.06;100443.41;5117653;28;20437;-44
2023/04/23 00:25:18;;;;;;;0.22;0.22;;;;;;;18.96;43.92;100434.31;5117432;28;20048;-45
2023/04/23 00:27:44;;;;;;;0.30;0.30;;;;;;;18.97;43.96;100435.94;5098951;28;20104;-44
2023/04/23 00:30:10;;;;;;;0.30;0.30;;;;;;;18.97;44.04;100438.69;5117187;28;20039;-45
2023/04/23 00:32:36;;;;;;;0.20;0.20;;;;;;;18.97;44.08;100438.69;5117174;28;20525;-42
2023/04/23 00:35:01;;;;;;;0.20;0.20;;;;;;;18.96;44.06;100439.81;5117632;28;20112;-45
2023/04/23 00:37:27;;;;;;;0.20;0.20;;;;;;;18.96;44.32;100440.66;5117109;28;20042;-46
2023/04/23 00:39:53;;;;;;;0.20;0.20;;;;;;;18.95;44.05;100441.72;5116888;28;20468;-42
2023/04/23 00:42:19;;;;;;;0.20;0.20;;;;;;;18.96;44.25;100439.81;5116966;28;20035;-44
2023/04/23 00:44:45;;;;;;;0.30;0.30;;;;;;;18.96;43.89;100432.38;5116798;27;20092;-43
2023/04/23 00:47:11;;;;;;;0.20;0.20;;;;;;;18.97;44.01;100445.03;5117021;28;20047;-46
2023/04/23 00:49:38;;;;;;;0.30;0.30;;;;;;;18.97;43.93;100436.75;5116929;28;20107;-44
2023/04/23 00:52:04;;;;;;;0.30;0.30;;;;;;;18.98;43.95;100435.63;5116985;28;20502;-44
2023/04/23 00:54:30;;;;;;;0.30;0.30;;;;;;;18.97;44.29;100433.19;5117336;28;20050;-44
2023/04/23 00:56:57;;;;;;;0.20;0.20;;;;;;;18.96;44.20;100426.03;5117117;28;20047;-47
2023/04/23 00:59:24;;;;;;;0.30;0.30;;;;;;;18.96;44.20;100435.13;5116817;28;20271;-45
2023/04/23 01:01:51;;;;;;;0.20;0.20;;;;;;;18.96;44.29;100434.31;5117126;28;20058;-45
2023/04/23 01:04:17;;;;;;;0.30;0.30;;;;;;;18.96;44.06;100428.78;5117141;27;20510;-44
2023/04/23 01:06:45;;;;;;;0.20;0.20;;;;;;;18.96;44.20;100431.53;5116752;28;20158;-46
2023/04/23 01:09:11;;;;;;;0.30;0.30;;;;;;;18.98;44.03;100426.53;5117376;28;20046;-47
2023/04/23 01:11:38;;;;;;;0.20;0.20;;;;;;;18.95;44.41;100425.19;5084380;28;20043;-47
2023/04/23 01:14:05;;;;;;;0.30;0.30;;;;;;;18.96;44.04;100417.75;5098751;28;20050;-44
2023/04/23 01:16:31;;;;;;;0.20;0.20;;;;;;;18.95;44.08;100414.13;5098973;28;20077;-42
2023/04/23 01:18:57;;;;;;;0.32;0.32;;;;;;;18.96;44.37;100410.28;5078092;28;20043;-42
2023/04/23 01:21:24;;;;;;;0.30;0.30;;;;;;;18.96;44.29;100413.06;5096162;28;20443;-46
2023/04/23 01:23:50;;;;;;;0.30;0.30;;;;;;;18.96;44.27;100413.06;5078244;28;20100;-45
2023/04/23 01:26:17;;;;;;;0.30;0.30;;;;;;;18.96;44.30;100406.72;5106219;28;20410;-44
2023/04/23 01:28:44;;;;;;;0.20;0.20;;;;;;;18.96;43.95;100407.53;5098434;28;20112;-46
2023/04/23 01:31:12;;;;;;;0.30;0.30;;;;;;;18.96;44.36;100406.72;5117055;28;20043;-46
2023/04/23 01:33:39;;;;;;;0.30;0.30;;;;;;;18.97;44.08;100403.66;5116604;28;20047;-43
2023/04/23 01:36:05;;;;;;;0.30;0.30;;;;;;;18.95;44.25;100405.88;5117323;28;20049;-42
2023/04/23 01:38:32;;;;;;;0.30;0.30;;;;;;;18.97;44.07;100406.41;5098345;28;20043;-46
2023/04/23 01:40:57;;;;;;;0.20;0.20;;;;;;;18.96;44.05;100390.16;5115796;28;20417;-43
2023/04/23 01:43:24;;;;;;;0.30;0.30;;;;;;;18.95;44.14;100392.06;5116977;27;20059;-44
2023/04/23 01:45:50;;;;;;;0.22;0.22;;;;;;;18.96;44.22;100399.25;5105401;28;20085;-44
2023/04/23 01:48:16;;;;;;;0.20;0.20;;;;;;;18.95;44.24;100397.59;5106420;28;20039;-43
2023/04/23 01:50:42;;;;;;;0.30;0.30;;;;;;;18.95;44.29;100383.78;5077912;28;20047;-45
2023/04/23 01:53:07;;;;;;;0.20;0.20;;;;;;;18.96;44.03;100393.72;5096436;28;20051;-44
2023/04/23 01:55:33;;;;;;;0.20;0.20;;;;;;;18.96;44.16;100379.94;5095796;28;20062;-45
2023/04/23 01:57:59;;;;;;;0.20;0.20;;;;;;;18.95;44.34;100389.31;5096273;28;20438;-47
2023/04/23 02:00:25;;;;;;;0.30;0.30;;;;;;;18.96;44.24;100398.44;5096013;28;20035;-44
2023/04/23 02:02:52;;;;;;;0.20;0.20;;;;;;;18.96;44.23;100402.00;5109283;27;20047;-45
2023/04/23 02:05:18;;;;;;;0.30;0.30;;;;;;;18.95;44.33;100408.63;5133851;27;20047;-43
2023/04/23 02:07:46;;;;;;;0.30;0.30;;;;;;;18.97;44.16;100408.34;5078004;28;20107;-46
2023/04/23 02:10:12;;;;;;;0.20;0.20;;;;;;;18.96;44.19;100401.19;5095985;28;20480;-44
2023/04/23 02:12:38;;;;;;;0.20;0.20;;;;;;;18.96;44.39;100399.25;5095929;28;20135;-44
2023/04/23 02:15:05;;;;;;;0.20;0.20;;;;;;;18.96;43.99;100403.94;5115961;27;20131;-44
2023/04/23 02:17:31;;;;;;;0.20;0.20;;;;;;;18.95;44.15;100399.53;5116295;28;20498;-42
2023/04/23 02:19:57;;;;;;;0.30;0.30;;;;;;;18.95;44.33;100389.31;5116380;28;20574;-43
2023/04/23 02:22:24;;;;;;;0.20;0.20;;;;;;;18.95;44.03;100397.59;5116087;28;20051;-43
2023/04/23 02:24:51;;;;;;;0.30;0.30;;;;;;;18.96;44.23;100393.72;5115871;28;20445;-46
2023/04/23 02:27:18;;;;;;;0.20;0.20;;;;;;;18.95;44.31;100394.81;5097952;28;20050;-42
2023/04/23 02:29:44;;;;;;;0.30;0.30;;;;;;;18.94;44.37;100395.13;5097960;28;20475;-46
2023/04/23 02:32:10;;;;;;;0.20;0.20;;;;;;;18.95;44.20;100396.75;5115486;27;20047;-42
2023/04/23 02:34:36;;;;;;;0.30;0.30;;;;;;;18.95;44.29;100385.72;5115790;28;20057;-45
2023/04/23 02:37:03;;;;;;;0.30;0.30;;;;;;;18.95;44.09;100386.53;5098042;28;20485;-45
2023/04/23 02:39:30;;;;;;;0.20;0.20;;;;;;;18.95;44.06;100386.53;5097881;28;20394;-43
2023/04/23 02:41:56;;;;;;;0.20;0.20;;;;;;;18.95;44.14;100394.81;5097075;28;20067;-43
2023/04/23 02:44:23;;;;;;;0.20;0.20;;;;;;;18.95;44.20;100389.31;5077396;28;20448;-41
2023/04/23 02:46:49;;;;;;;0.30;0.30;;;;;;;18.94;44.33;100379.38;5109245;28;20055;-45
2023/04/23 02:49:15;;;;;;;0.20;0.20;;;;;;;18.96;44.37;100392.91;5116039;28;20169;-45
2023/04/23 02:51:40;;;;;;;0.20;0.20;;;;;;;18.95;44.15;100380.22;5097467;28;20328;-43
2023/04/23 02:54:06;;;;;;;0.20;0.20;;;;;;;18.95;44.11;100385.72;5115464;28;20043;-44
2023/04/23 02:56:32;;;;;;;0.38;0.38;;;;;;;18.95;44.24;100386.53;5115313;28;20039;-44
2023/04/23 02:58:58;;;;;;;0.20;0.20;;;;;;;18.95;44.17;100378.25;5097355;28;20046;-44
2023/04/23 03:01:23;;;;;;;0.20;0.20;;;;;;;18.95;44.02;100372.75;5115548;28;20112;-45
2023/04/23 03:03:49;;;;;;;0.30;0.30;;;;;;;18.95;44.02;100372.75;5095433;27;20517;-46
2023/04/23 03:06:15;;;;;;;0.20;0.20;;;;;;;18.95;44.13;100367.22;5104533;28;20039;-43
2023/04/23 03:08:41;;;;;;;0.20;0.20;;;;;;;18.95;44.11;100369.16;5115015;28;20217;-45
2023/04/23 03:11:07;;;;;;;0.20;0.20;;;;;;;18.95;44.12;100363.66;5115575;28;20518;-45
2023/04/23 03:13:32;;;;;;;0.20;0.20;;;;;;;18.95;44.06;100372.75;5115281;28;20127;-44
2023/04/23 03:15:58;;;;;;;0.20;0.20;;;;;;;18.95;44.38;100369.16;5114619;28;20047;-43
2023/04/23 03:18:24;;;;;;;0.20;0.20;;;;;;;18.95;44.34;100363.66;5096625;28;20546;-42
2023/04/23 03:20:49;;;;;;;0.30;0.30;;;;;;;18.95;44.09;100363.66;5115797;28;20043;-45
2023/04/23 03:23:15;;;;;;;0.20;0.20;;;;;;;18.95;44.06;100364.47;5115097;28;20046;-43
2023/04/23 03:25:41;;;;;;;0.20;0.20;;;;;;;18.94;44.24;100357.31;5096459;28;20043;-43
2023/04/23 03:28:07;;;;;;;0.20;0.20;;;;;;;18.95;44.30;100360.91;5076351;28;20256;-45
2023/04/23 03:30:32;;;;;;;0.20;0.20;;;;;;;18.95;44.33;100366.41;5094855;28;20050;-43
2023/04/23 03:32:58;;;;;;;0.20;0.20;;;;;;;18.95;44.29;100352.63;5076158;28;20052;-47
2023/04/23 03:35:25;;;;;;;0.20;0.20;;;;;;;18.94;44.04;100351.78;5096535;28;20104;-44
2023/04/23 03:37:51;;;;;;;0.20;0.20;;;;;;;18.95;44.21;100363.66;5095958;28;20139;-43
2023/04/23 03:40:18;;;;;;;0.25;0.25;;;;;;;18.95;44.29;100360.91;5079471;28;20421;-46
2023/04/23 03:42:43;;;;;;;0.20;0.20;;;;;;;18.95;44.47;100363.66;5095889;27;20403;-44
2023/04/23 03:45:10;;;;;;;0.30;0.30;;;;;;;18.94;44.18;100362.84;5115152;28;20050;-43
2023/04/23 03:47:35;;;;;;;0.20;0.20;;;;;;;18.94;44.32;100357.31;5118138;28;20479;-45
2023/04/23 03:50:01;;;;;;;0.30;0.30;;;;;;;18.94;44.08;100351.78;5117729;28;20043;-45
2023/04/23 03:52:27;;;;;;;0.30;0.30;;;;;;;18.94;44.39;100349.03;5118841;27;20350;-45
2023/04/23 03:54:53;;;;;;;0.30;0.30;;;;;;;18.95;44.32;100352.63;5118044;28;20060;-44
2023/04/23 03:57:19;;;;;;;0.30;0.30;;;;;;;18.95;44.30;100349.84;5099442;28;20052;-43
2023/04/23 03:59:45;;;;;;;0.30;0.30;;;;;;;18.94;44.08;100356.50;5097346;28;20587;-46
2023/04/23 04:02:11;;;;;;;0.30;0.30;;;;;;;18.94;44.30;100353.75;5111418;27;20413;-42
2023/04/23 04:04:37;;;;;;;0.30;0.30;;;;;;;18.94;44.15;100354.56;5117920;28;20548;-46
2023/04/23 04:07:02;;;;;;;0.20;0.20;;;;;;;18.94;44.42;100349.03;5117800;27;20432;-43
2023/04/23 04:09:28;;;;;;;0.30;0.30;;;;;;;18.94;44.41;100349.03;5097014;28;20054;-43
2023/04/23 04:11:54;;;;;;;0.30;0.30;;;;;;;18.94;44.25;100346.28;5097336;28;20048;-44
2023/04/23 04:14:21;;;;;;;0.20;0.20;;;;;;;18.94;44.04;100346.28;5097201;28;20047;-44
2023/04/23 04:16:46;;;;;;;0.20;0.20;;;;;;;18.93;44.33;100350.16;5092466;28;20479;-44
2023/04/23 04:19:12;;;;;;;0.20;0.20;;;;;;;18.94;44.39;100345.47;5099552;28;20233;-46
2023/04/23 04:21:38;;;;;;;0.20;0.20;;;;;;;18.94;44.12;100348.22;5117866;28;20078;-43
2023/04/23 04:24:04;;;;;;;0.30;0.30;;;;;;;18.94;44.26;100351.78;5117730;28;20047;-43
2023/04/23 04:26:31;;;;;;;0.20;0.20;;;;;;;18.93;44.06;100341.88;5117446;28;20050;-42
2023/04/23 04:28:58;;;;;;;0.20;0.20;;;;;;;18.94;44.32;100343.53;5099437;28;20483;-47
2023/04/23 04:31:27;;;;;;;0.20;0.20;;;;;;;18.94;44.07;100343.53;5117566;28;20275;-44
2023/04/23 04:33:54;;;;;;;0.20;0.20;;;;;;;18.95;44.20;100344.34;5117822;28;20047;-42
2023/04/23 04:36:20;;;;;;;0.30;0.30;;;;;;;18.94;44.25;100343.53;5099474;28;20047;-47
2023/04/23 04:38:46;;;;;;;0.20;0.20;;;;;;;18.94;44.32;100348.22;5098647;28;20081;-47
2023/04/23 04:41:12;;;;;;;0.20;0.20;;;;;;;18.95;44.48;100352.63;5098950;28;20047;-46
2023/04/23 04:43:39;;;;;;;0.20;0.20;;;;;;;18.95;44.40;100356.19;5117606;28;20089;-43
2023/04/23 04:46:04;;;;;;;0.20;0.20;;;;;;;18.94;44.18;100359.25;5077219;28;20429;-44
2023/04/23 04:48:33;;;;;;;0.20;0.20;;;;;;;18.94;44.27;100356.50;5109489;28;20081;-45
2023/04/23 04:50:58;;;;;;;0.30;0.30;;;;;;;18.94;44.27;100360.06;5116566;28;20507;-43
2023/04/23 04:53:24;;;;;;;0.20;0.20;;;;;;;18.95;44.32;100360.91;5117684;28;20111;-44
2023/04/23 04:55:50;;;;;;;0.30;0.30;;;;;;;18.94;44.12;100367.53;5116947;27;20054;-46
2023/04/23 04:58:16;;;;;;;0.20;0.20;;;;;;;18.93;44.42;100369.47;5116815;28;20047;-45
2023/04/23 05:00:42;;;;;;;0.30;0.30;;;;;;;18.93;44.24;100360.38;5117005;27;20054;-44
2023/04/23 05:03:08;;;;;;;0.20;0.20;;;;;;;18.94;44.29;100362.84;5117202;28;20406;-43
2023/04/23 05:05:35;;;;;;;0.25;0.25;;;;;;;18.93;44.48;100366.72;5117424;28;20067;-42
2023/04/23 05:08:01;;;;;;;0.25;0.25;;;;;;;18.94;44.12;100367.53;5117447;28;20058;-46
2023/04/23 05:10:28;;;;;;;0.20;0.20;;;;;;;18.94;44.40;100362.84;5117087;28;20178;-45
2023/04/23 05:12:55;;;;;;;0.20;0.20;;;;;;;18.94;44.18;100360.06;5099183;28;20039;-43
2023/04/23 05:15:21;;;;;;;0.20;0.20;;;;;;;18.94;44.29;100357.31;5082295;28;20047;-43
2023/04/23 05:17:49;;;;;;;0.20;0.20;;;;;;;18.93;44.39;100355.69;5098707;28;20043;-43
2023/04/23 05:20:14;;;;;;;0.20;0.20;;;;;;;18.93;44.41;100358.44;5117085;28;20069;-43
2023/04/23 05:22:41;;;;;;;0.20;0.20;;;;;;;18.93;44.25;100354.84;5098763;28;20665;-45
2023/04/23 05:25:08;;;;;;;0.20;0.20;;;;;;;18.93;44.40;100363.97;5117599;28;20497;-43
2023/04/23 05:27:34;;;;;;;0.20;0.20;;;;;;;18.94;44.05;100356.50;5100725;28;20047;-43
2023/04/23 05:30:01;;;;;;;0.20;0.20;;;;;;;18.94;44.24;100364.78;5098489;28;20437;-44
2023/04/23 05:32:27;;;;;;;0.30;0.30;;;;;;;18.93;44.36;100352.91;5081448;28;20100;-46
2023/04/23 05:34:52;;;;;;;0.20;0.20;;;;;;;18.94;44.37;100359.25;5117268;28;20046;-45
2023/04/23 05:37:18;;;;;;;0.20;0.20;;;;;;;18.93;44.23;100352.91;5098680;28;20051;-45
2023/04/23 05:39:44;;;;;;;0.20;0.20;;;;;;;18.94;44.44;100350.97;5116922;28;20053;-43
2023/04/23 05:42:10;;;;;;;0.30;0.30;;;;;;;18.93;44.47;100360.38;5116554;28;20452;-44
2023/04/23 05:44:35;;;;;;;0.30;0.30;;;;;;;18.94;44.24;100359.25;5117134;28;20188;-43
2023/04/23 05:47:01;;;;;;;0.30;0.30;;;;;;;18.93;44.04;100355.69;5116829;28;20055;-43
2023/04/23 05:49:27;;;;;;;0.30;0.30;;;;;;;18.93;44.13;100361.19;5116660;27;20394;-42
2023/04/23 05:51:52;;;;;;;0.20;0.20;;;;;;;18.93;44.19;100361.19;5116442;27;20039;-42
2023/04/23 05:54:18;;;;;;;0.20;0.20;;;;;;;18.93;44.40;100365.91;5116651;28;20778;-44
2023/04/23 05:56:44;;;;;;;0.30;0.30;;;;;;;18.93;44.35;100358.44;5103746;28;20048;-43
2023/04/23 05:59:10;;;;;;;0.20;0.20;;;;;;;18.94;44.48;100362.84;5096235;28;20506;-44
2023/04/23 06:01:36;;;;;;;0.20;0.20;;;;;;;18.92;44.43;100362.31;5116283;27;20039;-44
2023/04/23 06:04:02;;;;;;;0.20;0.20;;;;;;;18.94;44.23;100368.34;5137287;27;20046;-42
2023/04/23 06:06:28;;;;;;;0.20;0.20;;;;;;;18.93;44.18;100360.38;5124976;27;20049;-42
2023/04/23 06:08:53;;;;;;;0.22;0.22;;;;;;;18.94;44.24;100364.78;5098230;28;20055;-44
2023/04/23 06:11:20;;;;;;;0.20;0.20;;;;;;;18.93;44.17;100361.19;5116389;28;20441;-43
2023/04/23 06:13:46;;;;;;;0.35;0.35;;;;;;;18.93;44.29;100360.38;5116189;28;20078;-43
2023/04/23 06:16:11;;;;;;;0.22;0.22;;;;;;;18.93;44.40;100358.44;5097809;28;20055;-44
2023/04/23 06:18:38;;;;;;;0.25;0.25;;;;;;;18.93;44.14;100352.09;5116623;28;20476;-43
2023/04/23 06:21:04;;;;;;;0.20;0.20;;;;;;;18.92;44.16;100356.81;5115667;28;20519;-43
2023/04/23 06:23:31;;;;;;;0.20;0.20;;;;;;;18.93;44.13;100354.84;5116366;28;20050;-47
2023/04/23 06:25:56;;;;;;;0.20;0.20;;;;;;;18.93;44.16;100361.19;5116200;28;20096;-43
2023/04/23 06:28:22;;;;;;;0.28;0.28;;;;;;;18.93;44.32;100346.59;5098083;28;20051;-45
2023/04/23 06:30:48;;;;;;;0.20;0.20;;;;;;;18.93;44.01;100355.69;5080666;28;20107;-45
2023/04/23 06:33:13;;;;;;;0.22;0.22;;;;;;;18.94;44.20;100356.50;5080378;28;20054;-43
2023/04/23 06:35:39;;;;;;;0.20;0.20;;;;;;;18.93;44.29;100357.63;5116031;28;20047;-45
2023/04/23 06:38:05;;;;;;;0.28;0.28;;;;;;;18.93;44.51;100352.91;5116104;28;20539;-43
2023/04/23 06:40:31;;;;;;;0.20;0.20;;;;;;;18.92;44.08;100356.81;5115687;28;20047;-45
2023/04/23 06:42:57;;;;;;;0.20;0.20;;;;;;;18.92;44.36;100350.47;5115597;28;20398;-45
2023/04/23 06:45:23;;;;;;;0.20;0.20;;;;;;;18.93;44.41;100355.69;5115498;28;20471;-43
2023/04/23 06:47:48;;;;;;;0.20;0.20;;;;;;;18.93;44.14;100352.09;5115856;28;20039;-41
2023/04/23 06:50:14;;;;;;;0.30;0.30;;;;;;;18.93;44.32;100343.81;5115533;28;20051;-45
2023/04/23 06:52:40;;;;;;;0.20;0.20;;;;;;;18.93;44.43;100349.34;5115517;28;20146;-44
2023/04/23 06:55:07;;;;;;;0.20;0.20;;;;;;;18.93;44.44;100341.06;5098870;28;20055;-43
2023/04/23 06:57:32;;;;;;;0.20;0.20;;;;;;;18.92;44.40;100336.66;5097240;28;20050;-44
2023/04/23 06:59:58;;;;;;;0.20;0.20;;;;;;;18.93;44.41;100341.88;5112013;27;20040;-45
2023/04/23 07:02:25;;;;;;;0.20;0.20;;;;;;;18.92;44.33;100334.72;5095033;28;20506;-45
2023/04/23 07:04:50;;;;;;;0.30;0.30;;;;;;;18.91;44.28;100335.84;5095324;28;20278;-43
2023/04/23 07:07:16;;;;;;;0.30;0.30;;;;;;;18.92;44.54;100337.50;5112514;28;20087;-45
2023/04/23 07:09:42;;;;;;;0.20;0.20;;;;;;;18.92;44.48;100336.66;5116145;28;20043;-45
2023/04/23 07:12:08;;;;;;;0.20;0.20;;;;;;;18.93;44.14;100332.78;5115031;28;20456;-44
2023/04/23 07:14:34;;;;;;;0.20;0.20;;;;;;;18.91;44.49;100324.81;5114524;28;20086;-46
2023/04/23 07:16:59;;;;;;;0.20;0.20;;;;;;;18.92;44.31;100323.69;5114743;28;20420;-44
2023/04/23 07:19:26;;;;;;;0.30;0.30;;;;;;;18.90;44.26;100317.63;5118325;27;20047;-44
2023/04/23 07:21:52;;;;;;;0.20;0.20;;;;;;;18.90;44.24;100317.63;5118275;28;20043;-45
2023/04/23 07:24:17;;;;;;;0.30;0.30;;;;;;;18.93;44.39;100317.06;5117933;28;20096;-43
2023/04/23 07:26:44;;;;;;;0.20;0.20;;;;;;;18.93;44.51;100316.22;5118372;28;20124;-47
2023/04/23 07:29:10;;;;;;;0.20;0.20;;;;;;;18.91;44.14;100313.78;5099560;28;20047;-45
2023/04/23 07:31:36;;;;;;;0.30;0.30;;;;;;;18.92;44.45;100318.16;5118702;28;20306;-46
2023/04/23 07:34:02;;;;;;;0.30;0.30;;;;;;;18.91;44.17;100311.00;5118464;28;20365;-46
2023/04/23 07:36:27;;;;;;;0.30;0.30;;;;;;;18.92;44.40;100314.59;5117652;28;20456;-43
2023/04/23 07:38:53;;;;;;;0.30;0.30;;;;;;;18.91;44.35;100316.53;5118058;28;20507;-46
2023/04/23 07:41:19;;;;;;;0.20;0.20;;;;;;;18.92;44.28;100315.41;5100414;28;20111;-45
2023/04/23 07:43:45;;;;;;;0.20;0.20;;;;;;;18.92;44.44;100312.66;5117792;28;20078;-42
2023/04/23 07:46:11;;;;;;;0.30;0.30;;;;;;;18.91;44.20;100310.16;5118288;28;20058;-46
2023/04/23 07:48:36;;;;;;;0.20;0.20;;;;;;;18.92;44.22;100301.63;5099316;28;20047;-44
2023/04/23 07:51:02;;;;;;;0.20;0.20;;;;;;;18.92;44.17;100307.13;5117801;28;20047;-43
2023/04/23 07:53:28;;;;;;;0.20;0.20;;;;;;;18.92;44.49;100298.84;5118249;28;20179;-44
2023/04/23 07:55:55;;;;;;;0.20;0.20;;;;;;;18.92;44.33;100293.34;5117265;28;20051;-43
2023/04/23 07:58:21;;;;;;;0.30;0.30;;;;;;;18.92;44.46;100292.53;5099928;28;20389;-44
2023/04/23 08:00:47;;;;;;;0.20;0.20;;;;;;;18.93;44.17;100294.16;5117546;27;20073;-43
2023/04/23 08:03:13;;;;;;;0.20;0.20;;;;;;;18.91;44.20;100286.19;5117840;28;20053;-44
2023/04/23 08:05:40;;;;;;;0.28;0.28;;;;;;;18.92;44.23;100293.34;5117999;28;20050;-47
2023/04/23 08:08:07;;;;;;;0.28;0.28;;;;;;;18.93;44.22;100288.63;5099478;28;20054;-42
2023/04/23 08:10:33;;;;;;;0.30;0.30;;;;;;;18.91;44.15;100286.19;5082317;28;20502;-43
2023/04/23 08:12:59;;;;;;;0.30;0.30;;;;;;;18.93;44.12;100288.63;5083118;28;20044;-45
2023/04/23 08:15:25;;;;;;;0.25;0.25;;;;;;;18.91;44.24;100288.09;5065490;28;20456;-43
2023/04/23 08:17:51;;;;;;;0.20;0.20;;;;;;;18.91;44.17;100283.44;5117115;28;20502;-44
2023/04/23 08:20:17;;;;;;;0.20;0.20;;;;;;;18.92;44.15;100282.31;5117969;28;20092;-42
2023/04/23 08:22:42;;;;;;;0.30;0.30;;;;;;;18.92;44.24;100287.81;5099471;28;20080;-44
2023/04/23 08:25:08;;;;;;;0.20;0.20;;;;;;;18.91;44.26;100286.19;5117172;28;20392;-44
2023/04/23 08:27:34;;;;;;;0.30;0.30;;;;;;;18.92;44.39;100282.31;5079129;28;20047;-45
2023/04/23 08:30:00;;;;;;;0.20;0.20;;;;;;;18.91;44.55;100277.91;5077968;28;20456;-43
2023/04/23 08:32:26;;;;;;;0.20;0.20;;;;;;;18.91;44.55;100279.81;5099337;28;20465;-45
2023/04/23 08:34:52;;;;;;;0.20;0.20;;;;;;;18.91;44.17;100285.34;5099197;28;20051;-46
2023/04/23 08:37:17;;;;;;;0.30;0.30;;;;;;;18.91;44.24;100282.56;5116578;28;20047;-42
2023/04/23 08:39:56;;;;;;;0.20;0.20;;;;;;;18.92;44.59;100281.47;5117095;28;20396;-42
2023/04/23 08:42:29;;;;;;;0.30;0.30;;;;;;;18.91;44.26;100282.56;5118066;28;20046;-43
2023/04/23 08:44:55;;;;;;;0.20;0.20;;;;;;;18.90;44.44;100284.53;5082914;28;20073;-43
2023/04/23 08:47:23;;;;;;;0.20;0.20;;;;;;;18.91;44.15;100290.84;5117751;28;20051;-44
2023/04/23 08:49:52;;;;;;;0.20;0.20;;;;;;;18.91;44.24;100286.19;5118006;28;20035;-46
2023/04/23 08:52:22;;;;;;;0.20;0.20;;;;;;;18.91;44.51;100285.34;5098956;28;20279;-44
2023/04/23 08:54:50;;;;;;;0.20;0.20;;;;;;;18.91;44.18;100275.16;5118264;28;20246;-44
2023/04/23 08:57:16;;;;;;;0.30;0.30;;;;;;;18.91;44.36;100277.91;5116519;28;20074;-42
2023/04/23 08:59:42;;;;;;;0.20;0.20;;;;;;;18.90;44.04;100270.72;5117401;27;20043;-43
2023/04/23 09:02:09;;;;;;;0.20;0.20;;;;;;;18.91;44.28;100269.63;5098993;28;20551;-44
2023/04/23 09:04:35;;;;;;;0.20;0.20;;;;;;;18.91;44.11;100275.16;5117748;28;20536;-44
2023/04/23 09:07:01;;;;;;;0.20;0.20;;;;;;;18.91;44.33;100269.63;5117243;28;20047;-44
2023/04/23 09:09:28;;;;;;;0.20;0.20;;;;;;;18.91;44.24;100264.13;5099247;28;20065;-42
2023/04/23 09:11:55;;;;;;;0.30;0.30;;;;;;;18.91;44.20;100255.84;5098916;28;20063;-42
2023/04/23 09:14:23;;;;;;;0.20;0.20;;;;;;;18.90;44.18;100251.41;5082263;28;20422;-42
2023/04/23 09:16:49;;;;;;;0.20;0.20;;;;;;;18.91;44.44;100252.22;5117620;28;20164;-43
2023/04/23 09:19:17;;;;;;;0.30;0.30;;;;;;;18.92;44.16;100254.72;5098862;28;20075;-43
2023/04/23 09:21:43;;;;;;;0.30;0.30;;;;;;;18.91;44.57;100263.25;5117182;28;20490;-43
2023/04/23 09:24:11;;;;;;;0.20;0.20;;;;;;;18.92;44.26;100251.97;5101470;27;20047;-42
2023/04/23 09:26:45;;;;;;;0.20;0.20;;;;;;;18.90;44.57;100254.16;5124631;27;20435;-42
2023/04/23 09:29:17;;;;;;;0.30;0.30;;;;;;;18.91;44.55;100249.47;5116630;28;20035;-43
2023/04/23 09:31:46;;;;;;;0.20;0.20;;;;;;;18.89;44.52;100244.25;5098773;28;20070;-43
2023/04/23 09:34:18;;;;;;;0.30;0.30;;;;;;;18.90;44.52;100250.59;5099347;28;20054;-42
2023/04/23 09:36:44;;;;;;;0.30;0.30;;;;;;;18.91;44.27;100252.22;5110393;28;20066;-42
2023/04/23 09:39:12;;;;;;;0.20;0.20;;;;;;;18.90;44.28;100245.06;5098721;28;20047;-43
2023/04/23 09:41:38;;;;;;;0.20;0.20;;;;;;;18.91;44.52;100236.53;5115190;27;20092;-42
2023/04/23 09:44:07;;;;;;;0.20;0.20;;;;;;;18.91;44.23;100242.03;5117079;28;20111;-44
2023/04/23 09:46:34;;;;;;;0.20;0.20;;;;;;;18.91;44.38;100241.19;5117514;28;20043;-44
2023/04/23 09:49:03;;;;;;;0.20;0.20;;;;;;;18.91;44.35;100235.69;5097822;28;20054;-45
2023/04/23 09:51:29;;;;;;;0.20;0.20;;;;;;;18.90;44.30;100228.53;5116893;28;20054;-43
2023/04/23 09:53:55;;;;;;;0.22;0.22;;;;;;;18.90;44.54;100231.28;5097630;28;20616;-43
2023/04/23 09:56:21;;;;;;;0.30;0.30;;;;;;;18.91;44.43;100227.41;5116597;28;20051;-42
2023/04/23 09:58:47;;;;;;;0.20;0.20;;;;;;;18.91;44.25;100225.50;5116743;28;20055;-43
2023/04/23 10:01:14;;;;;;;0.22;0.22;;;;;;;18.90;44.30;100218.31;5115920;28;20047;-43
2023/04/23 10:03:43;;;;;;;0.40;0.40;;;;;;;18.91;44.25;100216.34;5116149;27;20057;-43
2023/04/23 10:06:16;;;;;;;0.20;0.20;;;;;;;18.90;44.55;100209.22;5102198;28;20048;-42
2023/04/23 10:09:01;;;;;;;0.20;0.20;;;;;;;18.89;44.27;100210.34;5080614;28;20043;-42
2023/04/23 10:11:27;;;;;;;0.20;0.20;;;;;;;18.91;44.35;100202.56;5095787;28;20047;-43
2023/04/23 10:13:54;;;;;;;0.20;0.20;;;;;;;18.90;44.42;100201.75;5095783;28;20052;-41
2023/04/23 10:16:21;;;;;;;0.20;0.20;;;;;;;18.91;44.38;100213.59;5060498;28;20078;-42
2023/04/23 10:18:55;;;;;;;0.20;0.20;;;;;;;18.91;44.49;100205.31;5078185;28;20042;-42
2023/04/23 10:21:27;;;;;;;0.20;0.20;;;;;;;18.90;44.20;100203.69;5095391;28;20396;-44
2023/04/23 10:23:57;;;;;;;0.20;0.20;;;;;;;18.89;44.58;100205.63;5096064;27;20325;-44
2023/04/23 10:26:24;;;;;;;0.20;0.20;;;;;;;18.89;44.20;100202.06;5105556;28;20044;-42
2023/04/23 10:28:53;;;;;;;0.20;0.20;;;;;;;18.89;44.43;100191.84;5111442;28;20039;-42
2023/04/23 10:31:20;;;;;;;0.20;0.20;;;;;;;18.91;44.42;100205.31;5115620;27;20039;-42
2023/04/23 10:33:47;;;;;;;0.20;0.20;;;;;;;18.90;44.47;100201.75;5116244;27;20107;-43
2023/04/23 10:36:26;;;;;;;0.20;0.20;;;;;;;18.90;44.28;100203.69;5098681;28;20039;-43
2023/04/23 10:38:55;;;;;;;0.20;0.20;;;;;;;18.90;44.24;100198.16;5095225;28;20395;-45
2023/04/23 10:41:32;;;;;;;0.22;0.22;;;;;;;18.90;44.50;100198.16;5095392;28;20082;-42
2023/04/23 10:43:58;;;;;;;0.20;0.20;;;;;;;18.89;44.32;100197.34;5076692;28;20591;-45
2023/04/23 10:46:28;;;;;;;0.20;0.20;;;;;;;18.90;44.41;100189.91;5094915;28;20043;-43
2023/04/23 10:49:15;;;;;;;0.30;0.30;;;;;;;18.91;44.45;100194.28;5077218;28;20100;-44
2023/04/23 10:51:41;;;;;;;0.30;0.30;;;;;;;18.91;44.26;100183.25;5079695;28;20052;-42
2023/04/23 10:54:13;;;;;;;0.30;0.30;;;;;;;18.90;44.29;100184.38;5094746;28;20059;-44
2023/04/23 10:56:39;;;;;;;0.20;0.20;;;;;;;18.90;44.58;100182.44;5093975;28;20125;-44
2023/04/23 10:59:07;;;;;;;0.20;0.20;;;;;;;18.90;44.66;100185.19;5099043;27;20052;-42
2023/04/23 11:01:33;;;;;;;0.30;0.30;;;;;;;18.89;44.26;100172.53;5104331;28;20476;-43
2023/04/23 11:04:18;;;;;;;0.20;0.20;;;;;;;18.89;44.60;100175.28;5093879;28;20489;-43
2023/04/23 11:09:40;;;;;;;0.20;0.20;;;;;;;18.90;44.29;100171.41;5175218;27;20119;-43
2023/04/23 11:15:13;;;;;;;0.20;0.20;;;;;;;18.90;44.47;100163.13;5174771;27;20132;-44
2023/04/23 11:17:57;;;;;;;0.22;0.22;;;;;;;18.90;44.55;100160.38;5118622;27;20127;-44
2023/04/23 11:20:23;;;;;;;0.25;0.25;;;;;;;18.89;44.44;100163.44;5135029;27;20045;-44
2023/04/23 11:22:50;;;;;;;0.20;0.20;;;;;;;18.90;44.36;100163.13;5153551;27;20064;-44
2023/04/23 11:25:22;;;;;;;0.30;0.30;;;;;;;18.90;44.66;100154.84;5134430;27;20053;-42
2023/04/23 11:27:49;;;;;;;0.20;0.20;;;;;;;18.90;44.44;100149.31;5152844;27;20058;-44